Aérodrome :







RETROUVEZ-NOUS SUR...

 
LOGIN :

S'inscrire | Disclaimer

   EN    FR    IT 

 









Légende :    VFR   VFR Marginal   IFR   IFR Intensif   IFR Très Intensif
Visi : 
Plafond : 
>= 8 km
>= 3000ft
5 à 8 km
1000 à 3000 ft
1500m à 5 km
500 à 1000 ft
800 à 1500m
200 à 500 ft
< 800m
< 200 ft
Symboles :   Orages  Brouillard  Fortes neiges  Fortes précipitations  Vent > 20 kt






- Altitude de l'aérodrome : 36 ft
- Code IATA : PTP


TFFR - Le Raizet

DERNIER METAR :
  • 200100Z AUTO 10006KT CAVOK 23/21 Q1018 TEMPO 4000 SHRA BKN020TCU

METARs EXPIRÉS :
  • 200030Z AUTO 10006KT 9999 FEW023 SCT054 BKN066 23/21 Q1018 TEMPO 4000 SHRA BKN020TCU
  • 200000Z AUTO 00000KT 9999 FEW058 24/21 Q1018
  • 192330Z AUTO 05003KT 010V080 CAVOK 24/21 Q1018
  • 192300Z AUTO 11005KT 9999 FEW022 24/21 Q1017
  • 192230Z AUTO 10007KT CAVOK 25/21 Q1017
  • 192200Z AUTO 10008KT CAVOK 25/21 Q1017

TAF TAF TFFR
Valide du 20 à 00h jusqu'au 21 à 00h UTC


192300Z 2000/2024 09010KT 9999 SCT025 SCT040
TEMPO 2000/2011 VRB02KT
PROB40
TEMPO 2000/2003 4000 SHRA BKN020TCU
PROB40
TEMPO 2018/2024 4000 SHRA SCT025TCU
FIR TTZP / Amérique du Nord



MET'MAP, la Météo Aéronautique d'un coup d'oeil ! - Copyright ORBIFLY Décembre 2007 - Disclaimer

ORBIFLY MET'MAP TEAM :

Programmation & Développement : Alexandra Zaïnal
Sur une idée originale de : Baudouin d'Aumeries
Assistance à la programmation : Marc-Olivier Méhu
Soutien technique & logistique : Manuel Goepfert

Contact : metmap@orbifly.com




SOURCES & CREDITS :

   NOAA